Time;durP1;ratioP1;P1;durP2;ratioP2;P2;SDS_P1;SDS_P2;PMS_P1;PMS_P2;Temp;Humidity;BMP_temperature;BMP_pressure;BME280_temperature;BME280_humidity;BME280_pressure;Samples;Min_cycle;Max_cycle;Signal;HPM_P1;HPM_P2
2022/03/19 00:01:02;;;;;;;32.55;24.85;;;8.60;99.90;;;;;;5096396;28;20028;-78
2022/03/19 00:03:28;;;;;;;35.65;26.08;;;8.60;99.90;;;;;;5098112;28;20012;-78
2022/03/19 00:05:54;;;;;;;36.10;27.75;;;8.60;99.90;;;;;;5097540;28;20016;-78
2022/03/19 00:08:20;;;;;;;39.72;27.75;;;8.60;99.90;;;;;;5097871;28;20016;-78
2022/03/19 00:10:47;;;;;;;37.75;27.67;;;8.60;99.90;;;;;;5097650;28;20865;-78
2022/03/19 00:13:13;;;;;;;34.83;26.23;;;8.60;99.90;;;;;;5097624;28;20023;-78
2022/03/19 00:15:40;;;;;;;43.92;26.85;;;8.60;99.90;;;;;;5097250;28;20016;-78
2022/03/19 00:18:06;;;;;;;43.40;26.10;;;8.60;99.90;;;;;;5097707;28;20031;-78
2022/03/19 00:20:35;;;;;;;36.17;25.92;;;8.60;99.90;;;;;;5097332;28;20072;-78
2022/03/19 00:23:01;;;;;;;34.28;24.95;;;8.60;99.90;;;;;;5096464;28;20028;-78
2022/03/19 00:25:27;;;;;;;30.20;23.35;;;8.70;99.90;;;;;;5096197;28;20031;-78
2022/03/19 00:27:53;;;;;;;32.88;21.88;;;8.70;99.90;;;;;;5097203;28;20036;-78
2022/03/19 00:30:18;;;;;;;26.25;20.30;;;8.70;99.90;;;;;;5096826;28;20024;-78
2022/03/19 00:32:44;;;;;;;27.70;20.00;;;8.70;99.90;;;;;;5097583;28;20024;-78
2022/03/19 00:35:10;;;;;;;36.28;19.48;;;8.70;99.90;;;;;;5095876;28;20480;-78
2022/03/19 00:37:43;;;;;;;24.30;18.20;;;8.70;99.90;;;;;;5096325;28;20077;-78
2022/03/19 00:40:11;;;;;;;34.85;19.20;;;8.80;99.90;;;;;;5096981;28;20079;-78
2022/03/19 00:42:37;;;;;;;28.65;18.08;;;8.80;99.90;;;;;;5097273;28;20020;-78
2022/03/19 00:45:04;;;;;;;25.38;18.27;;;8.80;99.90;;;;;;5092303;28;20482;-78
2022/03/19 00:47:29;;;;;;;29.25;18.98;;;8.90;99.90;;;;;;5097352;28;20043;-78
2022/03/19 00:49:55;;;;;;;40.05;20.02;;;8.90;99.90;;;;;;5097018;28;20032;-78
2022/03/19 00:52:21;;;;;;;31.90;18.45;;;8.90;99.90;;;;;;5095969;28;20020;-78
2022/03/19 00:54:47;;;;;;;29.67;18.02;;;8.90;99.90;;;;;;5097196;28;20433;-78
2022/03/19 00:57:13;;;;;;;30.33;18.80;;;9.00;99.90;;;;;;5097100;28;20476;-78
2022/03/19 00:59:39;;;;;;;30.75;18.83;;;9.00;99.90;;;;;;5099036;28;20044;-78
2022/03/19 01:02:05;;;;;;;32.90;18.77;;;9.00;99.90;;;;;;5100310;28;20028;-78
2022/03/19 01:04:31;;;;;;;31.20;17.98;;;9.10;99.90;;;;;;5101140;28;20077;-78
2022/03/19 01:06:57;;;;;;;27.70;18.63;;;9.10;99.90;;;;;;5101329;28;20023;-78
2022/03/19 01:09:23;;;;;;;28.98;17.38;;;9.20;99.90;;;;;;5099944;28;20028;-78
2022/03/19 01:11:49;;;;;;;32.08;18.08;;;9.20;99.90;;;;;;5101098;28;20023;-78
2022/03/19 01:14:15;;;;;;;36.35;17.08;;;9.30;99.90;;;;;;5100706;28;20103;-78
2022/03/19 01:16:40;;;;;;;33.10;18.02;;;9.30;99.90;;;;;;5098829;28;20097;-78
2022/03/19 01:19:06;;;;;;;27.85;17.52;;;9.30;99.90;;;;;;5100832;28;20028;-78
2022/03/19 01:21:32;;;;;;;33.20;17.67;;;9.30;99.90;;;;;;5100807;28;20020;-78
2022/03/19 01:23:58;;;;;;;26.42;17.77;;;9.30;99.90;;;;;;5099448;28;20077;-78
2022/03/19 01:26:24;;;;;;;31.85;17.85;;;9.20;99.90;;;;;;5099492;28;20028;-77
2022/03/19 01:28:50;;;;;;;39.50;17.65;;;9.10;99.90;;;;;;5100434;28;20028;-78
2022/03/19 01:31:16;;;;;;;29.13;17.98;;;9.10;99.90;;;;;;5099066;28;20431;-77
2022/03/19 01:33:42;;;;;;;32.55;17.48;;;9.10;99.90;;;;;;5100517;28;20020;-78
2022/03/19 01:36:07;;;;;;;33.97;18.40;;;9.10;99.90;;;;;;5099325;28;20020;-78
2022/03/19 01:38:33;;;;;;;30.15;16.85;;;9.10;99.90;;;;;;5100704;28;20099;-77
2022/03/19 01:41:00;;;;;;;34.85;18.02;;;9.10;99.90;;;;;;5098995;28;20051;-78
2022/03/19 01:43:26;;;;;;;30.48;17.88;;;9.10;99.90;;;;;;5100249;28;20032;-78
2022/03/19 01:45:51;;;;;;;29.77;17.33;;;9.20;99.90;;;;;;5099602;28;20539;-78
2022/03/19 01:48:17;;;;;;;37.42;16.85;;;9.20;99.90;;;;;;5100310;28;20028;-78
2022/03/19 01:50:43;;;;;;;32.72;16.95;;;9.30;99.90;;;;;;5100399;28;20070;-78
2022/03/19 01:53:09;;;;;;;30.63;18.23;;;9.40;99.90;;;;;;5098975;28;20031;-78
2022/03/19 01:55:35;;;;;;;34.13;17.67;;;9.40;99.90;;;;;;5100358;28;20016;-78
2022/03/19 01:58:02;;;;;;;32.80;18.27;;;9.50;99.90;;;;;;5098792;28;20081;-77
2022/03/19 02:00:28;;;;;;;39.40;17.30;;;9.60;99.90;;;;;;5100039;28;20031;-78
2022/03/19 02:02:54;;;;;;;31.85;17.60;;;9.70;99.90;;;;;;5098817;28;20032;-78
2022/03/19 02:05:23;;;;;;;27.23;17.35;;;9.80;99.90;;;;;;5100133;28;20072;-79
2022/03/19 02:07:50;;;;;;;27.70;17.92;;;9.80;99.90;;;;;;5098570;28;20077;-78
2022/03/19 02:10:17;;;;;;;44.20;17.65;;;9.90;99.90;;;;;;5098071;28;20159;-79
2022/03/19 02:12:44;;;;;;;31.08;18.55;;;9.90;99.90;;;;;;5098189;28;20024;-78
2022/03/19 02:15:12;;;;;;;32.70;15.85;;;9.90;99.90;;;;;;5099499;28;20062;-79
2022/03/19 02:17:39;;;;;;;23.30;16.33;;;9.90;99.90;;;;;;5098078;28;20104;-78
2022/03/19 02:20:06;;;;;;;39.30;17.38;;;9.80;99.90;;;;;;5099493;28;20031;-79
2022/03/19 02:22:32;;;;;;;36.90;17.92;;;9.90;99.90;;;;;;5099599;28;20512;-79
2022/03/19 02:27:44;;;;;;;34.92;16.75;;;9.90;99.90;;;;;;5099343;28;20039;-78
2022/03/19 02:30:12;;;;;;;29.33;16.25;;;9.80;99.90;;;;;;5099027;28;20567;-79
2022/03/19 02:32:49;;;;;;;29.83;17.45;;;9.80;99.90;;;;;;5098234;28;20023;-78
2022/03/19 02:35:16;;;;;;;31.45;16.70;;;9.80;99.90;;;;;;5098122;28;20032;-78
2022/03/19 02:37:48;;;;;;;31.80;16.83;;;9.70;99.90;;;;;;5099806;28;20105;-78
2022/03/19 02:40:16;;;;;;;29.38;18.10;;;9.70;99.90;;;;;;5099225;28;20135;-78
2022/03/19 02:42:46;;;;;;;30.30;16.73;;;9.60;99.90;;;;;;5099305;28;20045;-78
2022/03/19 02:45:12;;;;;;;41.40;17.70;;;9.60;99.90;;;;;;5099207;28;20103;-78
2022/03/19 02:47:56;;;;;;;29.75;16.90;;;9.50;99.90;;;;;;5099361;28;20289;-78
2022/03/19 02:50:27;;;;;;;25.83;17.25;;;9.50;99.90;;;;;;5099250;28;20024;-78
2022/03/19 02:52:53;;;;;;;27.65;17.60;;;9.40;99.90;;;;;;5099051;28;20042;-78
2022/03/19 02:55:19;;;;;;;30.15;17.42;;;9.40;99.90;;;;;;5099215;28;20032;-78
2022/03/19 02:57:45;;;;;;;31.67;16.83;;;9.30;99.90;;;;;;5097692;28;20478;-78
2022/03/19 03:00:11;;;;;;;25.55;16.92;;;9.30;99.90;;;;;;5097851;28;20096;-78
2022/03/19 03:02:37;;;;;;;29.95;18.70;;;9.20;99.90;;;;;;5099033;28;20392;-78
2022/03/19 03:05:05;;;;;;;33.58;19.25;;;9.10;99.90;;;;;;5098964;28;20031;-78
2022/03/19 03:07:31;;;;;;;28.17;19.13;;;9.10;99.90;;;;;;5098928;28;20020;-78
2022/03/19 03:09:57;;;;;;;30.30;18.73;;;9.00;99.90;;;;;;5097719;28;20028;-78
2022/03/19 03:12:23;;;;;;;28.60;18.00;;;9.00;99.90;;;;;;5097541;28;20021;-79
2022/03/19 03:14:49;;;;;;;27.25;17.80;;;9.00;99.90;;;;;;5098624;28;20016;-79
2022/03/19 03:17:15;;;;;;;27.33;17.88;;;9.00;99.90;;;;;;5097300;28;20511;-78
2022/03/19 03:19:42;;;;;;;30.67;20.25;;;9.00;99.90;;;;;;5097638;28;20028;-78
2022/03/19 03:22:09;;;;;;;36.13;19.90;;;9.00;99.90;;;;;;5096126;28;20024;-78
2022/03/19 03:24:35;;;;;;;35.95;19.63;;;9.00;99.90;;;;;;5097475;28;20089;-78
2022/03/19 03:27:01;;;;;;;33.92;19.42;;;9.00;99.90;;;;;;5098764;28;20024;-79
2022/03/19 03:29:27;;;;;;;32.80;20.15;;;8.90;99.90;;;;;;5096642;28;20093;-78
2022/03/19 03:31:53;;;;;;;33.25;20.38;;;8.90;99.90;;;;;;5085674;28;20131;-78
2022/03/19 03:34:18;;;;;;;37.83;22.30;;;8.90;99.90;;;;;;5096991;28;20050;-78
2022/03/19 03:36:44;;;;;;;30.60;20.90;;;8.80;99.90;;;;;;5096982;28;20108;-78
2022/03/19 03:39:10;;;;;;;36.10;20.48;;;8.80;99.90;;;;;;5096908;28;20088;-78
2022/03/19 03:41:36;;;;;;;38.45;21.42;;;8.80;99.90;;;;;;5096728;28;20032;-78
2022/03/19 03:44:02;;;;;;;49.53;22.80;;;8.80;99.90;;;;;;5098178;28;20030;-78
2022/03/19 03:46:28;;;;;;;40.05;23.73;;;8.80;99.90;;;;;;5096951;28;20031;-78
2022/03/19 03:48:53;;;;;;;40.72;22.17;;;8.90;99.90;;;;;;5096734;28;20024;-79
2022/03/19 03:51:19;;;;;;;37.70;23.98;;;9.00;99.90;;;;;;5096925;28;20366;-79
2022/03/19 03:53:45;;;;;;;38.28;22.60;;;9.00;99.90;;;;;;5097886;28;20472;-78
2022/03/19 03:56:12;;;;;;;44.30;23.75;;;9.10;99.90;;;;;;5098092;28;20085;-78
2022/03/19 03:58:40;;;;;;;38.63;23.38;;;9.10;99.90;;;;;;5097976;28;20030;-78
2022/03/19 04:01:07;;;;;;;41.95;23.38;;;9.10;99.90;;;;;;5097530;28;20020;-78
2022/03/19 04:03:33;;;;;;;38.95;22.35;;;9.10;99.90;;;;;;5097900;28;20020;-79
2022/03/19 04:05:59;;;;;;;38.10;23.55;;;9.20;99.90;;;;;;5096713;28;20017;-78
2022/03/19 04:08:25;;;;;;;45.28;25.10;;;9.20;99.90;;;;;;5097855;28;20392;-78
2022/03/19 04:10:50;;;;;;;47.97;25.40;;;9.10;99.90;;;;;;5089424;28;20024;-78
2022/03/19 04:13:16;;;;;;;43.63;24.95;;;9.10;99.90;;;;;;5097803;28;20468;-78
2022/03/19 04:15:42;;;;;;;36.45;24.10;;;9.10;99.90;;;;;;5097096;28;20044;-78
2022/03/19 04:18:08;;;;;;;41.97;23.40;;;9.10;99.90;;;;;;5097870;28;20097;-78
2022/03/19 04:20:34;;;;;;;42.17;24.60;;;9.00;99.90;;;;;;5096047;28;20024;-79
2022/03/19 04:23:00;;;;;;;41.90;24.83;;;9.00;99.90;;;;;;5096247;28;20075;-78
2022/03/19 04:25:27;;;;;;;43.28;26.10;;;9.00;99.90;;;;;;5097344;28;20055;-78
2022/03/19 04:27:56;;;;;;;45.60;25.33;;;9.00;99.90;;;;;;5096369;28;20063;-79
2022/03/19 04:30:25;;;;;;;47.27;27.47;;;9.00;99.90;;;;;;5095819;28;20031;-79
2022/03/19 04:32:56;;;;;;;46.08;27.55;;;8.90;99.90;;;;;;5096367;28;20048;-79
2022/03/19 04:38:09;;;;;;;48.75;30.52;;;8.90;99.90;;;;;;5097612;28;20107;-79
2022/03/19 04:40:37;;;;;;;48.55;30.58;;;8.90;99.90;;;;;;5095916;28;20044;-78
2022/03/19 04:43:03;;;;;;;55.03;29.13;;;8.90;99.90;;;;;;5095868;28;20141;-78
2022/03/19 04:45:29;;;;;;;49.33;29.10;;;8.90;99.90;;;;;;5096088;28;20028;-78
2022/03/19 04:47:55;;;;;;;46.25;30.38;;;8.90;99.90;;;;;;5095889;28;20111;-78
2022/03/19 04:50:21;;;;;;;52.20;28.08;;;8.90;99.90;;;;;;5097340;28;20028;-79
2022/03/19 04:52:48;;;;;;;57.38;30.08;;;8.90;99.90;;;;;;5097221;28;20024;-78
2022/03/19 04:55:14;;;;;;;52.97;31.45;;;8.90;99.90;;;;;;5095962;28;20065;-78
2022/03/19 04:57:40;;;;;;;53.67;29.27;;;8.90;99.90;;;;;;5095667;28;20028;-78
2022/03/19 05:00:11;;;;;;;47.80;29.35;;;8.90;99.90;;;;;;5095912;28;20026;-78
2022/03/19 05:02:37;;;;;;;50.03;28.35;;;8.80;99.90;;;;;;5095943;28;20054;-78
2022/03/19 05:05:03;;;;;;;48.15;28.42;;;8.90;99.90;;;;;;5095782;28;20028;-78
2022/03/19 05:07:35;;;;;;;51.97;27.60;;;8.80;99.90;;;;;;5095600;28;20169;-78
2022/03/19 05:12:47;;;;;;;46.30;28.33;;;8.80;99.90;;;;;;5097014;28;20510;-78
2022/03/19 05:15:14;;;;;;;50.22;26.23;;;8.80;99.90;;;;;;5096737;28;20020;-79
2022/03/19 05:17:41;;;;;;;46.80;27.25;;;8.70;99.90;;;;;;5096902;28;20396;-78
2022/03/19 05:20:08;;;;;;;48.38;27.02;;;8.70;99.90;;;;;;5096888;28;20021;-77
2022/03/19 05:22:35;;;;;;;43.58;28.42;;;8.70;99.90;;;;;;5096848;28;20028;-77
2022/03/19 05:25:01;;;;;;;45.65;29.00;;;8.60;99.90;;;;;;5096893;28;20488;-78
2022/03/19 05:27:27;;;;;;;47.78;27.45;;;8.60;99.90;;;;;;5095615;28;20024;-78
2022/03/19 05:29:53;;;;;;;48.30;26.95;;;8.60;99.90;;;;;;5095077;28;20435;-78
2022/03/19 05:32:20;;;;;;;44.63;26.33;;;8.50;99.90;;;;;;5080803;28;20024;-78
2022/03/19 05:34:46;;;;;;;50.20;27.67;;;8.50;99.90;;;;;;5088922;28;20028;-78
2022/03/19 05:37:13;;;;;;;52.38;28.50;;;8.50;99.90;;;;;;5095402;28;20035;-78
2022/03/19 05:39:39;;;;;;;43.75;26.98;;;8.50;99.90;;;;;;5095479;28;20131;-78
2022/03/19 05:42:06;;;;;;;47.28;25.77;;;8.50;99.90;;;;;;5095225;28;20036;-78
2022/03/19 05:44:33;;;;;;;48.80;25.48;;;8.50;99.90;;;;;;5096626;28;20035;-78
2022/03/19 05:46:59;;;;;;;38.08;24.75;;;8.50;99.90;;;;;;5099159;28;20032;-79
2022/03/19 05:49:26;;;;;;;40.53;24.85;;;8.50;99.90;;;;;;5100814;28;20031;-79
2022/03/19 05:51:53;;;;;;;53.92;24.75;;;8.50;99.90;;;;;;5100597;28;20032;-78
2022/03/19 05:54:20;;;;;;;40.00;23.95;;;8.50;99.90;;;;;;5100501;28;20052;-78
2022/03/19 05:56:45;;;;;;;45.83;22.85;;;8.50;99.90;;;;;;5099055;28;20439;-78
2022/03/19 05:59:12;;;;;;;45.78;23.70;;;8.50;99.90;;;;;;5098809;28;20032;-79
2022/03/19 06:01:38;;;;;;;44.80;22.65;;;8.50;99.90;;;;;;5100485;28;20028;-79
2022/03/19 06:04:05;;;;;;;44.75;24.60;;;8.50;99.90;;;;;;5100183;28;20024;-79
2022/03/19 06:06:31;;;;;;;41.50;24.17;;;8.50;99.90;;;;;;5100437;28;20077;-79
2022/03/19 06:08:57;;;;;;;42.95;24.08;;;8.60;99.90;;;;;;5100036;28;20077;-79
2022/03/19 06:11:23;;;;;;;38.30;21.70;;;8.60;99.90;;;;;;5099233;28;20103;-79
2022/03/19 06:13:49;;;;;;;35.95;23.30;;;8.60;99.90;;;;;;5099810;28;20016;-79
2022/03/19 06:16:15;;;;;;;38.97;22.88;;;8.60;99.90;;;;;;5098528;28;20115;-79
2022/03/19 06:18:45;;;;;;;43.92;22.08;;;8.60;99.90;;;;;;5100104;28;20054;-78
2022/03/19 06:21:12;;;;;;;35.22;21.27;;;8.60;99.90;;;;;;5098485;28;20400;-78
2022/03/19 06:23:38;;;;;;;44.40;22.55;;;8.60;99.90;;;;;;5098376;28;20032;-79
2022/03/19 06:26:03;;;;;;;41.60;22.13;;;8.60;99.90;;;;;;5099988;28;20026;-78
2022/03/19 06:28:29;;;;;;;36.33;21.70;;;8.60;99.90;;;;;;5098047;28;20016;-79
2022/03/19 06:30:55;;;;;;;41.03;21.77;;;8.60;99.90;;;;;;5095826;28;20032;-79
2022/03/19 06:33:21;;;;;;;36.08;19.27;;;8.60;99.90;;;;;;5093292;28;20052;-78
2022/03/19 06:38:32;;;;;;;38.92;20.15;;;8.70;99.90;;;;;;5094471;28;20035;-78
2022/03/19 06:40:59;;;;;;;38.08;19.60;;;8.70;99.90;;;;;;5098166;28;20072;-78
2022/03/19 06:43:25;;;;;;;44.85;21.83;;;8.70;99.90;;;;;;5091999;28;20095;-78
2022/03/19 06:45:51;;;;;;;32.47;18.65;;;8.60;99.90;;;;;;5099519;28;20028;-78
2022/03/19 06:48:17;;;;;;;31.27;19.77;;;8.60;99.90;;;;;;5099396;28;20032;-78
2022/03/19 06:50:43;;;;;;;44.40;19.20;;;8.50;99.90;;;;;;5099376;28;20030;-78
2022/03/19 06:53:09;;;;;;;38.50;19.35;;;8.60;99.90;;;;;;5099109;28;20472;-78
2022/03/19 06:55:35;;;;;;;31.58;19.90;;;8.60;99.90;;;;;;5099255;28;20384;-78
2022/03/19 06:58:00;;;;;;;31.42;18.50;;;8.60;99.90;;;;;;5099140;28;21531;-78
2022/03/19 07:00:27;;;;;;;45.50;19.48;;;8.70;99.90;;;;;;5099120;28;20024;-78
2022/03/19 07:02:54;;;;;;;35.72;19.08;;;8.70;99.90;;;;;;5099197;28;20035;-78
2022/03/19 07:05:22;;;;;;;38.30;19.58;;;8.80;99.90;;;;;;5099148;28;20104;-78
2022/03/19 07:07:48;;;;;;;32.35;17.85;;;8.90;99.90;;;;;;5099331;28;20020;-78
2022/03/19 07:10:15;;;;;;;36.97;19.58;;;8.80;99.90;;;;;;5097922;28;20596;-78
2022/03/19 07:12:48;;;;;;;36.30;19.48;;;8.90;99.90;;;;;;5099160;28;20024;-78
2022/03/19 07:15:16;;;;;;;30.45;17.25;;;8.90;99.90;;;;;;5091553;28;20029;-78
2022/03/19 07:17:43;;;;;;;40.35;17.63;;;9.00;99.90;;;;;;5095120;28;20059;-78
2022/03/19 07:20:11;;;;;;;31.00;17.42;;;9.00;99.90;;;;;;5098194;28;20028;-78
2022/03/19 07:22:52;;;;;;;37.20;17.90;;;9.10;99.90;;;;;;5098347;28;20012;-78
2022/03/19 07:25:19;;;;;;;34.28;17.70;;;9.10;99.90;;;;;;5098043;28;20389;-78
2022/03/19 07:27:46;;;;;;;41.10;16.65;;;9.20;99.90;;;;;;5098021;28;20027;-78
2022/03/19 07:30:13;;;;;;;34.05;18.13;;;9.20;99.90;;;;;;5097524;28;20073;-78
2022/03/19 07:32:39;;;;;;;31.35;15.90;;;9.30;99.90;;;;;;5095543;28;20019;-79
2022/03/19 07:35:07;;;;;;;36.78;18.33;;;9.30;99.90;;;;;;5096409;28;20024;-78
2022/03/19 07:37:33;;;;;;;32.70;17.63;;;9.30;99.90;;;;;;5096713;28;20129;-78
2022/03/19 07:40:00;;;;;;;42.60;17.58;;;9.40;99.90;;;;;;5098088;28;20120;-78
2022/03/19 07:42:26;;;;;;;32.78;17.20;;;9.50;99.90;;;;;;5096840;28;20435;-78
2022/03/19 07:44:52;;;;;;;32.35;18.10;;;9.60;99.90;;;;;;5097998;28;20020;-78
2022/03/19 07:47:19;;;;;;;31.30;17.52;;;9.70;99.90;;;;;;5097891;28;20031;-78
2022/03/19 07:49:45;;;;;;;36.85;19.15;;;9.70;99.90;;;;;;5098007;28;20105;-78
2022/03/19 07:52:11;;;;;;;35.70;18.42;;;9.80;99.90;;;;;;5091506;28;20133;-78
2022/03/19 07:54:37;;;;;;;36.47;17.17;;;9.90;99.90;;;;;;5098227;28;20024;-78
2022/03/19 07:57:05;;;;;;;34.30;17.58;;;10.00;99.90;;;;;;5098032;28;20024;-78
2022/03/19 07:59:32;;;;;;;36.60;17.88;;;10.10;99.90;;;;;;5096535;28;20032;-78
2022/03/19 08:01:58;;;;;;;32.58;17.33;;;10.20;99.90;;;;;;5096993;28;20058;-78
2022/03/19 08:04:24;;;;;;;25.65;15.65;;;10.30;99.90;;;;;;5096694;28;20024;-78
2022/03/19 08:06:55;;;;;;;32.70;18.52;;;10.40;99.90;;;;;;5098141;28;20077;-78
2022/03/19 08:09:22;;;;;;;32.75;18.63;;;10.40;99.90;;;;;;5085525;28;20043;-79
2022/03/19 08:11:49;;;;;;;37.10;18.08;;;10.40;99.90;;;;;;5096510;28;20023;-78
2022/03/19 08:14:16;;;;;;;35.28;18.20;;;10.40;99.90;;;;;;5093906;28;20089;-78
2022/03/19 08:16:43;;;;;;;26.00;16.48;;;10.40;99.90;;;;;;5096622;28;20051;-79
2022/03/19 08:19:11;;;;;;;28.73;16.35;;;10.40;99.90;;;;;;5096154;28;20024;-78
2022/03/19 08:21:38;;;;;;;31.40;15.52;;;10.50;99.90;;;;;;5097511;28;20024;-79
2022/03/19 08:24:05;;;;;;;34.63;17.42;;;10.50;99.90;;;;;;5097430;28;20488;-78
2022/03/19 08:26:31;;;;;;;35.33;15.85;;;10.50;99.90;;;;;;5096307;28;20013;-78
2022/03/19 08:28:57;;;;;;;35.47;18.77;;;10.50;99.90;;;;;;5097487;28;20032;-78
2022/03/19 08:31:23;;;;;;;28.90;16.77;;;10.60;99.90;;;;;;5093009;28;20077;-78
2022/03/19 08:33:49;;;;;;;28.98;15.93;;;10.60;99.90;;;;;;5109892;28;20021;-78
2022/03/19 08:36:15;;;;;;;31.23;15.77;;;10.60;99.90;;;;;;5087935;28;20472;-79
2022/03/19 08:41:25;;;;;;;37.85;16.65;;;10.70;99.90;;;;;;5092752;28;20050;-78
2022/03/19 08:43:51;;;;;;;30.40;16.60;;;10.90;99.90;;;;;;5093214;28;20096;-80
2022/03/19 08:46:17;;;;;;;29.13;16.60;;;11.00;99.90;;;;;;5095980;28;20487;-81
2022/03/19 08:48:43;;;;;;;32.13;17.17;;;11.10;99.90;;;;;;5097116;28;20024;-79
2022/03/19 08:53:53;;;;;;;26.10;15.13;;;11.10;99.90;;;;;;5096968;28;20111;-80
2022/03/19 08:56:20;;;;;;;28.63;15.88;;;11.20;99.90;;;;;;5092504;28;20052;-79
2022/03/19 08:58:46;;;;;;;31.92;14.95;;;11.20;99.90;;;;;;5095028;28;20373;-81
2022/03/19 09:01:12;;;;;;;28.55;15.73;;;11.30;99.90;;;;;;5091834;28;20028;-83
2022/03/19 09:03:38;;;;;;;34.45;15.48;;;11.40;99.90;;;;;;5097098;28;20458;-80
2022/03/19 09:06:04;;;;;;;26.92;14.77;;;11.60;99.90;;;;;;5094344;28;20477;-77
2022/03/19 09:08:30;;;;;;;26.30;13.88;;;11.70;99.90;;;;;;5093232;28;20028;-77
2022/03/19 09:10:59;;;;;;;33.22;14.95;;;11.80;99.90;;;;;;5092661;28;20028;-78
2022/03/19 09:13:28;;;;;;;29.63;12.95;;;11.80;99.90;;;;;;5087457;28;20492;-79
2022/03/19 09:15:54;;;;;;;36.80;15.23;;;11.90;99.90;;;;;;5095299;28;20030;-78
2022/03/19 09:18:20;;;;;;;31.27;13.88;;;11.90;99.90;;;;;;5095384;28;20099;-78
2022/03/19 09:20:46;;;;;;;26.50;14.50;;;11.90;99.90;;;;;;5084858;28;20031;-79
2022/03/19 09:23:12;;;;;;;30.25;13.38;;;11.80;99.90;;;;;;5086160;28;20032;-78
2022/03/19 09:25:38;;;;;;;24.25;13.98;;;11.90;99.90;;;;;;5098224;28;20365;-78
2022/03/19 09:28:04;;;;;;;28.95;14.65;;;12.00;99.90;;;;;;5100497;28;20035;-76
2022/03/19 09:30:30;;;;;;;32.53;13.55;;;12.20;99.90;;;;;;5101404;28;20020;-75
2022/03/19 09:32:57;;;;;;;30.58;14.32;;;12.20;99.90;;;;;;5100480;28;20032;-77
2022/03/19 09:35:23;;;;;;;25.40;11.95;;;12.20;99.90;;;;;;5098825;28;20024;-78
2022/03/19 09:37:50;;;;;;;31.15;13.57;;;12.30;99.90;;;;;;5100353;28;20392;-77
2022/03/19 09:40:17;;;;;;;28.77;13.70;;;12.20;99.90;;;;;;5100117;28;20044;-78
2022/03/19 09:42:48;;;;;;;27.13;13.40;;;12.20;99.90;;;;;;5100479;28;20028;-77
2022/03/19 09:45:14;;;;;;;27.00;13.13;;;12.20;99.90;;;;;;5097333;28;20035;-78
2022/03/19 09:47:40;;;;;;;29.33;13.00;;;12.20;99.90;;;;;;5100717;28;20137;-78
2022/03/19 09:50:07;;;;;;;20.95;13.07;;;12.10;99.90;;;;;;5099110;28;20020;-77
2022/03/19 09:52:36;;;;;;;26.50;14.73;;;12.10;99.90;;;;;;5098891;28;20024;-77
2022/03/19 09:55:03;;;;;;;29.58;13.98;;;12.20;99.90;;;;;;5100019;28;20013;-78
2022/03/19 09:57:29;;;;;;;19.90;9.68;;;12.30;99.90;;;;;;5096046;28;20375;-77
2022/03/19 09:59:55;;;;;;;27.00;13.10;;;12.50;99.90;;;;;;5099874;28;20027;-78
2022/03/19 10:02:21;;;;;;;26.85;12.65;;;12.50;99.90;;;;;;5095129;28;20116;-78
2022/03/19 10:04:51;;;;;;;28.52;11.43;;;12.50;99.90;;;;;;5100078;28;20025;-78
2022/03/19 10:10:08;;;;;;;24.60;11.38;;;12.70;99.90;;;;;;5099641;28;20396;-78
2022/03/19 10:12:34;;;;;;;30.20;14.40;;;12.70;99.90;;;;;;5099173;28;20016;-77
2022/03/19 10:15:00;;;;;;;29.25;13.63;;;12.70;99.90;;;;;;5098417;28;20016;-77
2022/03/19 10:17:30;;;;;;;24.98;12.43;;;12.80;99.90;;;;;;5099568;28;20031;-78
2022/03/19 10:20:05;;;;;;;27.65;13.88;;;12.90;99.90;;;;;;5097027;28;20046;-77
2022/03/19 10:22:32;;;;;;;31.00;15.05;;;13.10;99.90;;;;;;5099624;28;20028;-78
2022/03/19 10:25:03;;;;;;;24.05;11.95;;;13.00;99.90;;;;;;5098335;28;20027;-78
2022/03/19 10:27:34;;;;;;;23.65;12.57;;;13.00;99.90;;;;;;5098169;28;20031;-80
2022/03/19 10:30:16;;;;;;;23.30;11.77;;;13.10;99.90;;;;;;5097950;28;20024;-78
2022/03/19 10:32:46;;;;;;;26.00;10.88;;;13.20;99.90;;;;;;5099247;28;20472;-77
2022/03/19 10:35:32;;;;;;;27.27;11.80;;;13.30;99.90;;;;;;5099246;28;20496;-78
2022/03/19 10:38:15;;;;;;;20.65;11.82;;;13.30;99.90;;;;;;5099362;28;20020;-78
2022/03/19 10:40:43;;;;;;;24.23;10.65;;;13.40;99.90;;;;;;5087846;28;20055;-79
2022/03/19 10:43:11;;;;;;;22.58;12.35;;;13.40;99.90;;;;;;5097512;28;20058;-79
2022/03/19 10:45:48;;;;;;;27.77;10.90;;;13.40;99.90;;;;;;5096817;28;20374;-77
2022/03/19 10:48:18;;;;;;;23.35;12.20;;;13.40;99.90;;;;;;5099132;28;20030;-78
2022/03/19 10:50:44;;;;;;;19.52;11.25;;;13.40;99.90;;;;;;5092353;28;20024;-78
2022/03/19 10:53:11;;;;;;;25.35;11.73;;;13.40;99.90;;;;;;5097749;28;20050;-78
2022/03/19 10:55:37;;;;;;;21.00;10.50;;;13.40;99.90;;;;;;5097349;28;20044;-78
2022/03/19 10:58:03;;;;;;;18.45;10.35;;;13.40;99.90;;;;;;5090937;28;20408;-78
2022/03/19 11:00:29;;;;;;;20.30;12.43;;;13.30;99.90;;;;;;5092879;28;20024;-79
2022/03/19 11:03:00;;;;;;;18.38;11.05;;;13.40;99.90;;;;;;5097717;28;20028;-79
2022/03/19 11:05:32;;;;;;;28.25;11.77;;;13.30;99.90;;;;;;5099023;28;20392;-79
2022/03/19 11:08:00;;;;;;;21.73;11.95;;;13.40;99.90;;;;;;5111187;27;20314;-79
2022/03/19 11:10:29;;;;;;;27.33;12.38;;;13.40;99.90;;;;;;5091428;28;20119;-80
2022/03/19 11:12:59;;;;;;;24.08;11.52;;;13.40;99.90;;;;;;5095956;28;20106;-80
2022/03/19 11:15:28;;;;;;;23.38;10.68;;;13.50;99.90;;;;;;5098677;28;20016;-80
2022/03/19 11:17:57;;;;;;;21.98;11.30;;;13.40;99.90;;;;;;5097834;28;20020;-79
2022/03/19 11:20:23;;;;;;;29.30;11.35;;;13.50;99.90;;;;;;5097008;28;20032;-80
2022/03/19 11:22:54;;;;;;;23.98;12.27;;;13.50;99.90;;;;;;5097443;28;20061;-80
2022/03/19 11:25:50;;;;;;;26.80;11.77;;;13.60;99.90;;;;;;5099097;28;20024;-79
2022/03/19 11:28:18;;;;;;;23.33;11.82;;;13.60;99.90;;;;;;5092179;28;20457;-78
2022/03/19 11:31:09;;;;;;;16.15;9.88;;;13.70;99.90;;;;;;5093605;28;20058;-78
2022/03/19 11:33:36;;;;;;;20.25;10.70;;;13.70;99.90;;;;;;5090309;28;20393;-78
2022/03/19 11:36:07;;;;;;;20.17;10.63;;;13.70;99.90;;;;;;5098490;28;20032;-78
2022/03/19 11:38:54;;;;;;;23.42;11.77;;;13.70;99.90;;;;;;5096960;28;20103;-79
2022/03/19 11:41:25;;;;;;;21.17;11.18;;;13.70;99.90;;;;;;5096922;28;20051;-78
2022/03/19 11:44:15;;;;;;;26.50;10.40;;;13.80;99.90;;;;;;5097138;28;20158;-78
2022/03/19 11:47:02;;;;;;;22.00;11.20;;;13.80;99.90;;;;;;5094329;28;20061;-77
2022/03/19 11:49:52;;;;;;;26.85;11.90;;;13.80;99.90;;;;;;5096769;28;20555;-78
2022/03/19 11:52:38;;;;;;;22.98;11.55;;;13.80;99.90;;;;;;5088433;28;20024;-79
2022/03/19 11:55:10;;;;;;;19.05;10.07;;;13.80;99.90;;;;;;5096636;28;20043;-78
2022/03/19 11:57:58;;;;;;;21.13;10.75;;;13.80;99.90;;;;;;5097942;28;20016;-78
2022/03/19 12:00:27;;;;;;;23.30;10.20;;;13.70;99.90;;;;;;5096851;28;20016;-78
2022/03/19 12:03:12;;;;;;;17.95;11.18;;;13.70;99.90;;;;;;5096755;28;20119;-78
2022/03/19 12:05:41;;;;;;;19.98;9.88;;;13.80;99.90;;;;;;5098215;28;20023;-80
2022/03/19 12:08:26;;;;;;;20.42;12.20;;;13.80;99.90;;;;;;5096740;28;20397;-79
2022/03/19 12:11:01;;;;;;;20.63;12.05;;;13.80;99.90;;;;;;5096408;28;20076;-78
2022/03/19 12:13:27;;;;;;;23.77;11.48;;;13.90;99.90;;;;;;5098012;28;20028;-79
2022/03/19 12:16:04;;;;;;;24.08;11.68;;;13.90;99.90;;;;;;5096284;28;20032;-79
2022/03/19 12:18:39;;;;;;;18.35;10.20;;;14.00;99.90;;;;;;5094137;28;20035;-79
2022/03/19 12:21:21;;;;;;;28.17;12.05;;;14.00;99.90;;;;;;5095823;28;20499;-78
2022/03/19 12:24:02;;;;;;;21.95;10.73;;;14.20;99.90;;;;;;5081192;28;20035;-78
2022/03/19 12:26:42;;;;;;;20.13;10.45;;;14.30;99.90;;;;;;5093559;28;20498;-79
2022/03/19 12:29:10;;;;;;;24.23;11.55;;;14.30;99.90;;;;;;5095414;28;20051;-80
2022/03/19 12:31:47;;;;;;;17.17;10.00;;;14.30;99.90;;;;;;5095606;28;20093;-80
2022/03/19 12:34:22;;;;;;;20.88;10.77;;;14.20;99.90;;;;;;5095330;28;20377;-78
2022/03/19 12:36:50;;;;;;;25.13;10.38;;;14.20;99.90;;;;;;5096846;28;20020;-79
2022/03/19 12:39:16;;;;;;;31.50;11.85;;;14.20;99.90;;;;;;5096321;28;20031;-80
2022/03/19 12:41:43;;;;;;;23.85;11.20;;;14.30;99.90;;;;;;5092261;28;20028;-79
2022/03/19 12:44:25;;;;;;;20.75;11.57;;;14.40;99.90;;;;;;5091933;28;20028;-80
2022/03/19 12:46:59;;;;;;;23.92;11.38;;;14.50;99.90;;;;;;5097198;28;20016;-80
2022/03/19 12:49:27;;;;;;;26.88;13.00;;;14.50;99.90;;;;;;5094010;28;20026;-79
2022/03/19 12:51:54;;;;;;;24.63;11.63;;;14.50;99.90;;;;;;5096208;28;20017;-80
2022/03/19 12:54:27;;;;;;;23.17;11.43;;;14.50;99.90;;;;;;5100021;28;20103;-80
2022/03/19 12:56:58;;;;;;;20.15;11.52;;;14.40;99.90;;;;;;5100983;28;20020;-80